Terminal Aerodrome Forecast
Issued by NWS North Platte, NE

Home | Current Version | Previous Version | Graphics & Text | Print | Product List | Glossary On
Versions: 1 2 3 4 5 6 7 8 9 10 11 12 13 14 15 16 17 18 19 20 21 22 23 24 25 26 27 28 29 30 31
000
FTUS43 KLBF 150900 AAA
TAFVTN
TAF AMD
KVTN 150923Z 1509/1606 35015G24KT 1SM -SN BR BKN014 OVC035
     FM151200 34017G25KT 2SM -SN BLSN OVC009
     FM152000 34017G25KT 5SM -SN BLSN OVC008
     FM160000 34014KT P6SM OVC015=

USA.gov is the U.S. government's official web portal to all federal, state and local government web resources and services.